Latest Weather Observations for Melbourne Airport

IDV60901

Issued at 5:25 pm EST Monday 1 September 2014 (issued every 10 minutes, with the page automatically refreshed every 10 minutes)

About weather observations | Map of Melbourne area stations | Latest observations for Melbourne area | Other Formats
Station Details ID: 086282 Name: MELBOURNE AIRPORT Lat: -37.67 Lon: 144.83 Height: 113.4 m
Data from the previous 72 hours. | See also: Recent months at Melbourne Airport
Date/Time
EST
Tmp

°C
App
Tmp
°C
Dew
Point
°C
Rel
Hum
%
Delta-T

°C
Wind Press
QNH
hPa
Press
MSL
hPa
Rain
since
9 am
mm
Dir
 
Spd
km/h
Gust
km/h
Spd
kts
Gust
kts
01/05:00pm 10.9 8.2 8.9 87 1.0 W 13 15 7 8 1009.6 1009.6 1.4
01/04:30pm 11.2 8.8 8.8 85 1.2 WSW 11 13 6 7 1009.4 1009.4 1.2
01/04:00pm 11.3 9.4 9.1 86 1.1 W 9 11 5 6 1009.3 1009.3 1.2
01/03:30pm 11.1 9.2 9.1 87 1.0 W 9 13 5 7 1008.9 1009.0 1.2
01/03:00pm 11.3 8.8 8.0 80 1.6 W 11 13 6 7 1008.9 1009.0 0.8
01/02:30pm 10.9 5.5 7.8 81 1.5 SW 26 35 14 19 1008.8 1008.9 0.8
01/02:14pm 11.8 5.7 6.6 70 2.5 SW 28 39 15 21 1008.6 1008.7 0.8
01/02:00pm 12.9 10.9 10.2 84 1.4 N 11 13 6 7 1008.3 1008.4 0.8
01/01:30pm 12.6 10.1 9.7 82 1.5 N 13 17 7 9 1008.4 1008.5 0.8
01/01:00pm 12.2 8.9 9.5 83 1.4 N 17 24 9 13 1008.9 1009.0 0.4
01/12:30pm 12.3 8.5 9.8 85 1.3 N 20 26 11 14 1008.4 1008.5 0.4
01/12:00pm 12.5 10.6 8.9 79 1.8 WNW 9 11 5 6 1009.3 1009.3 0.4
01/11:30am 12.5 9.5 7.8 73 2.3 N 13 17 7 9 1009.0 1009.1 0.2
01/11:00am 12.7 8.7 6.5 66 3.0 N 17 22 9 12 1009.1 1009.2 0.0
01/10:30am 13.5 8.6 5.2 57 3.9 N 20 28 11 15 1009.4 1009.4 0.0
01/10:00am 13.8 7.2 4.3 52 4.4 N 28 37 15 20 1009.4 1009.4 0.0
01/09:30am 12.9 6.1 5.0 58 3.7 N 30 33 16 18 1009.4 1009.5 0.0
01/09:00am 12.6 4.7 4.3 57 3.8 N 35 43 19 23 1009.0 1009.2 0.0
01/08:30am 12.6 3.9 4.3 57 3.8 N 39 52 21 28 1008.9 1009.1 0.0
01/08:00am 12.7 4.0 3.9 55 4.0 N 39 50 21 27 1009.0 1009.2 0.0
01/07:30am 12.6 3.5 4.0 56 3.9 N 41 50 22 27 1008.9 1009.1 0.0
01/07:00am 12.6 3.9 4.0 56 3.9 N 39 52 21 28 1008.6 1008.8 0.0
01/06:30am 13.0 3.9 3.8 53 4.2 N 41 52 22 28 1008.7 1008.9 0.0
01/06:00am 13.3 4.1 3.6 52 4.4 N 41 52 22 28 1009.3 1009.4 0.0
01/05:30am 13.5 3.7 3.6 51 4.5 N 44 61 24 33 1009.0 1009.2 0.0
01/05:00am 13.6 3.9 3.7 51 4.5 N 44 57 24 31 1008.6 1008.8 0.0
01/04:30am 13.9 3.4 3.6 50 4.7 N 48 59 26 32 1008.2 1008.4 0.0
01/04:00am 14.2 3.7 3.5 48 4.9 N 48 63 26 34 1007.7 1007.9 0.0
01/03:30am 13.9 2.7 3.9 51 4.6 N 52 70 28 38 1008.5 1008.7 0.0
01/03:23am 13.9 3.1 3.9 51 4.6 N 50 69 27 37 1008.7 1008.9 0.0
01/03:00am 14.0 3.9 4.0 51 4.6 N 46 59 25 32 1008.8 1009.0 0.0
01/02:30am 14.0 3.6 4.3 52 4.5 N 48 65 26 35 1009.1 1009.3 0.0
01/02:00am 14.1 5.1 4.7 53 4.4 N 41 52 22 28 1009.9 1010.0 0.0
01/01:30am 14.5 5.9 4.7 52 4.6 N 39 50 21 27 1010.5 1010.6 0.0
01/01:00am 15.0 5.6 4.6 50 4.9 N 43 56 23 30 1010.7 1010.8 0.0
01/12:30am 15.5 5.5 4.4 47 5.2 N 46 61 25 33 1010.5 1010.6 0.0
01/12:00am 15.8 5.1 4.6 47 5.3 N 50 63 27 34 1010.2 1010.3 0.0
 
Date/Time
EST
Tmp

°C
App
Tmp
°C
Dew
Point
°C
Rel
Hum
%
Delta-T

°C
Wind Press
QNH
hPa
Press
MSL
hPa
Rain
since
9 am
mm
Dir
 
Spd
km/h
Gust
km/h
Spd
kts
Gust
kts
31/11:30pm 15.5 4.9 5.2 50 4.9 N 50 74 27 40 1010.2 1010.3 0.0
31/11:00pm 15.7 5.5 5.3 50 5.0 N 48 67 26 36 1010.0 1010.1 0.0
31/10:30pm 15.8 6.0 5.4 50 5.0 N 46 59 25 32 1010.9 1011.0 0.0
31/10:00pm 15.9 8.2 5.5 50 5.0 N 35 48 19 26 1012.0 1012.1 0.0
31/09:46pm 15.8 9.2 5.9 51 4.8 N 30 50 16 27 1012.4 1012.5 0.0
31/09:30pm 15.7 10.0 6.5 54 4.5 N 26 41 14 22 1012.8 1012.9 0.0
31/09:00pm 15.7 9.7 7.0 56 4.3 N 28 37 15 20 1012.9 1013.0 0.0
31/08:30pm 15.3 12.2 7.2 58 4.0 NNE 13 17 7 9 1013.0 1013.1 0.0
31/08:00pm 14.8 11.4 7.6 62 3.6 NNE 15 20 8 11 1013.3 1013.4 0.0
31/07:30pm 15.6 11.1 7.1 57 4.2 NNE 20 28 11 15 1013.3 1013.4 0.0
31/07:00pm 16.0 11.2 7.2 56 4.4 NNE 22 32 12 17 1013.3 1013.4 0.0
31/06:30pm 16.1 10.9 7.3 56 4.4 NNE 24 32 13 17 1013.5 1013.6 0.0
31/06:00pm 16.7 11.8 7.1 53 4.8 N 22 33 12 18 1013.9 1014.0 0.0
31/05:30pm 16.7 12.8 7.3 54 4.7 N 17 28 9 15 1014.2 1014.3 0.0
31/05:00pm 17.4 11.3 6.8 49 5.3 N 28 39 15 21 1014.3 1014.4 0.0
31/04:30pm 17.6 13.4 7.5 51 5.1 NNE 19 30 10 16 1014.2 1014.3 0.0
31/04:00pm 18.0 13.8 7.3 49 5.4 NNE 19 28 10 15 1014.2 1014.3 0.0
31/03:30pm 18.4 11.6 6.9 47 5.8 NNE 32 41 17 22 1014.5 1014.7 0.0
31/03:00pm 18.8 11.8 6.1 43 6.3 NNE 32 43 17 23 1014.8 1015.0 0.0
31/02:30pm 18.8 10.8 5.9 43 6.4 N 37 46 20 25 1015.1 1015.3 0.0
31/02:00pm 20.0 12.1 6.0 40 7.0 N 37 48 20 26 1015.2 1015.4 0.0
31/01:30pm 19.7 10.8 5.0 38 7.2 N 41 54 22 29 1015.5 1015.7 0.0
31/01:00pm 20.6 11.3 4.9 35 7.7 N 43 56 23 30 1015.8 1016.0 0.0
31/12:30pm 20.1 10.1 4.4 35 7.6 N 46 54 25 29 1016.1 1016.3 0.0
31/12:00pm 19.7 10.1 4.4 36 7.4 N 44 57 24 31 1016.5 1016.7 0.0
31/11:30am 19.3 10.7 6.6 43 6.4 N 41 52 22 28 1017.0 1017.2 0.0
31/11:00am 19.1 9.8 5.2 40 6.8 N 43 52 23 28 1017.3 1017.5 0.0
31/10:30am 18.3 9.3 4.5 40 6.6 N 41 52 22 28 1017.6 1017.8 0.0
31/10:00am 17.5 8.5 4.8 43 6.1 N 41 52 22 28 1017.9 1018.1 0.0
31/09:30am 16.1 8.4 7.0 54 4.5 N 37 46 20 25 1018.6 1018.7 0.0
31/09:00am 14.8 6.6 6.6 58 4.0 N 39 52 21 28 1018.7 1018.8 0.0
31/08:30am 13.7 5.6 7.2 65 3.2 N 39 56 21 30 1018.8 1018.9 0.0
31/08:00am 13.1 4.5 6.7 65 3.1 N 41 52 22 28 1018.8 1018.9 0.0
31/07:30am 12.2 4.1 7.2 71 2.4 N 39 54 21 29 1018.9 1019.0 0.0
31/07:00am 10.7 3.8 7.4 80 1.6 N 33 41 18 22 1019.0 1019.1 0.0
31/06:30am 11.1 4.4 7.4 78 1.8 N 32 37 17 20 1018.9 1019.0 0.0
31/06:00am 10.7 4.8 7.4 80 1.6 N 28 33 15 18 1018.7 1018.8 0.0
31/05:30am 10.9 5.0 7.4 79 1.7 N 28 33 15 18 1018.5 1018.6 0.0
31/05:00am 11.8 5.0 7.0 72 2.3 N 32 39 17 21 1018.4 1018.5 0.0
31/04:30am 12.3 6.3 6.9 69 2.6 N 28 35 15 19 1018.5 1018.6 0.0
31/04:00am 11.4 5.7 6.8 73 2.2 N 26 32 14 17 1018.5 1018.6 0.0
31/03:30am 11.0 5.0 7.0 76 1.9 N 28 32 15 17 1018.7 1018.8 0.0
31/03:00am 10.7 5.1 7.1 78 1.7 N 26 30 14 16 1018.9 1019.0 0.0
31/02:30am 10.5 5.3 7.1 79 1.6 N 24 28 13 15 1019.1 1019.2 0.0
31/02:00am 10.6 5.0 7.3 80 1.6 N 26 30 14 16 1019.5 1019.6 0.0
31/01:30am 10.5 4.9 7.1 79 1.6 N 26 30 14 16 1019.8 1019.9 0.0
31/01:00am 10.5 5.3 7.1 79 1.6 N 24 30 13 16 1020.0 1020.1 0.0
31/12:30am 11.0 5.4 7.0 76 1.9 N 26 30 14 16 1020.3 1020.4 0.0
31/12:00am 12.0 6.3 6.8 70 2.5 N 26 30 14 16 1020.3 1020.4 0.0
 
Date/Time
EST
Tmp

°C
App
Tmp
°C
Dew
Point
°C
Rel
Hum
%
Delta-T

°C
Wind Press
QNH
hPa
Press
MSL
hPa
Rain
since
9 am
mm
Dir
 
Spd
km/h
Gust
km/h
Spd
kts
Gust
kts
30/11:30pm 12.5 7.6 6.7 68 2.8 N 22 26 12 14 1020.7 1020.8 0.0
30/11:00pm 12.4 7.0 6.5 67 2.8 N 24 28 13 15 1021.0 1021.1 0.0
30/10:30pm 12.5 7.1 6.4 66 2.9 N 24 26 13 14 1021.4 1021.5 0.0
30/10:00pm 12.2 7.2 6.5 68 2.7 N 22 28 12 15 1021.7 1021.9 0.0
30/09:30pm 13.1 8.0 6.2 63 3.3 N 22 26 12 14 1021.8 1022.0 0.0
30/09:00pm 12.9 7.8 6.2 64 3.2 N 22 26 12 14 1021.8 1022.0 0.0
30/08:30pm 12.9 7.8 6.2 64 3.2 N 22 26 12 14 1021.8 1022.0 0.0
30/08:00pm 13.4 8.7 6.0 61 3.5 N 20 22 11 12 1021.6 1021.8 0.0
30/07:30pm 13.5 9.1 6.4 62 3.4 N 19 20 10 11 1021.5 1021.6 0.0
30/07:00pm 14.8 10.3 6.1 56 4.2 N 19 20 10 11 1021.4 1021.5 0.0
30/06:30pm 15.0 10.4 5.6 53 4.5 N 19 20 10 11 1021.6 1021.8 0.0
30/06:00pm 15.7 11.6 6.0 52 4.7 N 17 19 9 10 1021.7 1021.9 0.0
30/05:30pm 16.8 12.7 6.4 50 5.1 N 17 20 9 11 1021.5 1021.6 0.0
30/05:00pm 18.5 13.9 5.6 42 6.3 N 19 22 10 12 1021.5 1021.6 0.0
30/04:30pm 19.1 13.4 4.9 39 6.9 N 24 30 13 16 1021.5 1021.6 0.0
30/04:00pm 19.7 14.4 5.2 38 7.1 N 22 32 12 17 1021.6 1021.8 0.0
30/03:30pm 19.7 13.2 4.6 37 7.3 N 28 35 15 19 1021.5 1021.6 0.0
30/03:00pm 19.9 13.6 5.5 39 7.1 N 28 35 15 19 1021.7 1021.9 0.0
30/02:30pm 19.9 13.5 5.2 38 7.2 N 28 41 15 22 1022.0 1022.2 0.0
30/02:00pm 20.1 12.9 5.0 37 7.4 N 32 39 17 21 1022.2 1022.4 0.0
30/01:30pm 20.1 13.8 5.5 38 7.2 N 28 35 15 19 1022.5 1022.7 0.0
30/01:00pm 20.1 14.7 6.4 41 6.9 N 24 32 13 17 1023.1 1023.3 0.0
30/12:30pm 19.3 14.2 7.6 46 6.0 N 24 33 13 18 1023.3 1023.5 0.0
30/12:00pm 18.9 14.0 8.5 51 5.4 N 24 33 13 18 1023.8 1024.0 0.0
30/11:30am 18.5 13.1 8.2 51 5.3 NNE 26 33 14 18 1024.2 1024.4 0.0
30/11:00am 17.8 13.2 8.0 52 5.0 N 22 32 12 17 1024.6 1024.8 0.0
30/10:30am 17.0 12.2 7.4 53 4.8 NNE 22 32 12 17 1025.0 1025.2 0.0
30/10:00am 16.0 12.6 7.6 57 4.2 N 15 26 8 14 1025.6 1025.8 0.0
30/09:30am 13.9 12.0 9.0 72 2.5 NNE 9 11 5 6 1025.9 1026.1 0.0
30/09:00am 12.0 10.0 8.8 81 1.6 NNE 9 13 5 7 1026.1 1026.3 0.0
30/08:30am 11.0 8.5 8.3 83 1.3 NNE 11 15 6 8 1026.2 1026.4 0.0
30/08:00am 10.2 7.8 8.6 90 0.8 NE 11 15 6 8 1026.1 1026.3 0.0
30/07:30am 9.8 7.0 8.4 91 0.7 NNE 13 17 7 9 1026.1 1026.3 0.0
30/07:00am 10.1 7.3 8.5 90 0.8 NNE 13 17 7 9 1025.9 1026.1 0.0
30/06:30am 10.1 7.7 8.5 90 0.8 NNE 11 19 6 10 1025.6 1025.8 0.0
30/06:00am 10.1 8.2 8.9 92 0.6 NE 9 13 5 7 1025.4 1025.6 0.0
30/05:30am 10.0 8.0 8.8 92 0.6 NNE 9 13 5 7 1025.6 1025.8 0.0
30/05:00am 10.0 8.0 8.8 92 0.6 NNW 9 13 5 7 1025.5 1025.7 0.0
30/04:30am 10.2 8.7 9.0 92 0.6 NNW 7 11 4 6 1025.5 1025.7 0.0
30/04:00am 10.4 8.5 9.2 92 0.6 NW 9 11 5 6 1025.7 1025.9 0.0
30/03:30am 10.6 9.2 9.4 92 0.6 NW 7 9 4 5 1025.7 1025.9 0.0
30/03:00am 10.6 9.2 9.6 93 0.5 NNW 7 9 4 5 1025.8 1026.0 0.0
30/02:30am 10.7 9.3 9.5 92 0.6 WNW 7 9 4 5 1026.1 1026.3 0.0
30/02:00am 10.8 9.6 9.6 92 0.6 W 6 9 3 5 1026.4 1026.6 0.0
30/01:30am 10.8 10.4 9.8 93 0.5 W 2 9 1 5 1026.6 1026.8 0.0
30/01:01am 10.9 9.5 9.7 92 0.6 WSW 7 9 4 5 1027.0 1027.1 0.0
30/01:00am 10.9 9.5 9.7 92 0.6 WSW 7 9 4 5 1027.0 1027.1 0.0
30/12:30am 10.9 9.2 9.9 93 0.5 S 9 11 5 6 1027.2 1027.3 0.0
30/12:00am 10.8 9.4 9.6 92 0.6 WSW 7 9 4 5 1027.3 1027.4 0.0
 
Date/Time
EST
Tmp

°C
App
Tmp
°C
Dew
Point
°C
Rel
Hum
%
Delta-T

°C
Wind Press
QNH
hPa
Press
MSL
hPa
Rain
since
9 am
mm
Dir
 
Spd
km/h
Gust
km/h
Spd
kts
Gust
kts
29/11:30pm 11.0 9.7 9.8 92 0.6 SW 7 9 4 5 1027.6 1027.7 0.0
29/11:00pm 11.1 9.8 9.9 92 0.6 SW 7 9 4 5 1027.7 1027.8 0.0
29/10:30pm 11.2 9.5 9.8 91 0.7 SSW 9 11 5 6 1027.9 1028.0 0.0
29/10:00pm 11.3 9.6 9.7 90 0.8 SSW 9 13 5 7 1028.0 1028.1 0.0
29/09:44pm 11.3 9.6 9.7 90 0.8 S 9 13 5 7 1028.1 1028.2 0.0
29/09:30pm 11.3 9.6 9.7 90 0.8 SSW 9 11 5 6 1028.1 1028.2 0.0
29/09:00pm 11.4 9.2 9.4 87 1.0 S 11 15 6 8 1028.0 1028.1 0.0
29/08:51pm 11.4 9.2 9.4 87 1.0 S 11 15 6 8 1028.0 1028.1 0.0
29/08:30pm 11.4 9.5 9.0 85 1.2 S 9 13 5 7 1028.1 1028.2 0.0
29/08:19pm 11.0 9.1 9.0 87 1.0 S 9 11 5 6 1028.1 1028.2 0.0
29/08:00pm 11.0 9.4 8.8 86 1.1 S 7 9 4 5 1028.0 1028.1 0.0
29/07:30pm 10.7 8.7 8.5 86 1.1 S 9 13 5 7 1028.1 1028.2 0.0
29/07:00pm 11.4 8.5 8.3 81 1.5 S 13 17 7 9 1028.0 1028.1 0.0
29/06:30pm 12.0 9.5 8.1 77 1.9 S 11 13 6 7 1027.8 1027.9 0.0
29/06:00pm 11.8 9.2 7.9 77 1.9 S 11 13 6 7 1027.6 1027.7 0.0
29/05:30pm 12.5 10.3 8.0 74 2.2 S 9 11 5 6 1027.6 1027.7 0.0

Latest Capital City Observations: Canberra | Sydney | Melbourne | Brisbane | Adelaide | Perth | Hobart | Darwin

Other Formats:

Comma delimited format used in spreadsheet applications
http://www.bom.gov.au/fwo/IDV60901/IDV60901.94866.axf

JavaScript Object Notation format (JSON) in row-major order
http://www.bom.gov.au/fwo/IDV60901/IDV60901.94866.json